createdAt,value
2022-11-18T00:03:10.632Z,8
2022-11-18T00:08:55.344Z,7.9
2022-11-18T00:14:36.764Z,8.1
2022-11-18T00:19:47.756Z,8.1
2022-11-18T00:25:42.051Z,8
2022-11-18T00:31:19.415Z,8
2022-11-18T00:36:50.361Z,8
2022-11-18T00:42:03.488Z,8.2
2022-11-18T00:47:36.137Z,8.1
2022-11-18T00:53:12.146Z,8.2
2022-11-18T00:58:42.625Z,8.2
2022-11-18T01:04:26.411Z,8.1
2022-11-18T01:09:53.116Z,8.1
2022-11-18T01:15:24.407Z,8.2
2022-11-18T01:21:08.116Z,8.5
2022-11-18T01:26:41.916Z,8.9
2022-11-18T01:32:27.794Z,9.2
2022-11-18T01:37:52.519Z,9.5
2022-11-18T01:42:57.390Z,9.4
2022-11-18T01:48:58.071Z,9.4
2022-11-18T01:54:12.499Z,9.1
2022-11-18T01:59:48.709Z,9.1
2022-11-18T02:05:13.958Z,9
2022-11-18T02:10:59.045Z,8.9
2022-11-18T02:16:24.874Z,8.9
2022-11-18T02:22:02.177Z,9.1
2022-11-18T02:27:31.632Z,9.1
2022-11-18T02:33:14.579Z,9.2
2022-11-18T02:38:43.726Z,9.1
2022-11-18T02:44:24.266Z,9
2022-11-18T02:49:44.880Z,8.9
2022-11-18T02:55:18.714Z,8.9
2022-11-18T03:01:06.861Z,9
2022-11-18T03:06:29.724Z,9
2022-11-18T03:12:10.062Z,9
2022-11-18T03:17:27.784Z,8.8
2022-11-18T03:22:55.769Z,8.8
2022-11-18T03:28:47.567Z,8.7
2022-11-18T03:34:01.959Z,8.8
2022-11-18T03:39:55.067Z,8.7
2022-11-18T03:45:06.474Z,8.5
2022-11-18T03:50:41.549Z,8.7
2022-11-18T03:56:33.789Z,8.8
2022-11-18T04:02:09.386Z,8.8
2022-11-18T04:07:36.901Z,8.7
2022-11-18T04:13:14.259Z,8.7
2022-11-18T04:18:26.306Z,8.5
2022-11-18T04:24:16.553Z,8.4
2022-11-18T04:29:28.868Z,8.2
2022-11-18T04:35:09.354Z,8.1
2022-11-18T04:40:42.682Z,8.1
2022-11-18T04:46:14.248Z,8
2022-11-18T04:51:50.281Z,7.9
2022-11-18T04:57:22.976Z,7.9
2022-11-18T05:02:47.751Z,7.9
2022-11-18T05:08:26.976Z,8
2022-11-18T05:14:07.568Z,7.9
2022-11-18T05:19:37.572Z,7.8
2022-11-18T05:25:20.962Z,7.7
2022-11-18T05:30:54.461Z,7.6
2022-11-18T05:36:03.594Z,7.5
2022-11-18T05:41:48.502Z,7.5
2022-11-18T05:47:05.319Z,7.5
2022-11-18T05:52:41.719Z,7.5
2022-11-18T05:58:15.272Z,7.4
2022-11-18T06:04:02.268Z,7.4
2022-11-18T06:09:21.417Z,7.4
2022-11-18T06:14:57.408Z,7.4
2022-11-18T06:20:38.420Z,7.3
2022-11-18T06:26:17.654Z,7.3
2022-11-18T06:31:40.725Z,7.3
2022-11-18T06:37:11.230Z,7.4
2022-11-18T06:42:58.513Z,7.4
2022-11-18T06:48:10.053Z,7.5
2022-11-18T06:53:48.411Z,7.5
2022-11-18T06:59:34.569Z,7.6
2022-11-18T07:04:48.655Z,7.5
2022-11-18T07:10:18.459Z,7.5
2022-11-18T07:16:00.703Z,7.5
2022-11-18T07:21:36.805Z,7.6
2022-11-18T07:26:58.524Z,7.7
2022-11-18T07:32:35.903Z,7.8
2022-11-18T07:38:20.686Z,7.8
2022-11-18T07:43:57.625Z,7.9
2022-11-18T07:49:20.202Z,7.8
2022-11-18T07:54:57.926Z,7.8
2022-11-18T08:00:27.082Z,7.8
2022-11-18T08:06:06.796Z,7.9
2022-11-18T08:11:43.665Z,7.9
2022-11-18T08:17:16.617Z,7.9
2022-11-18T08:22:35.955Z,8
2022-11-18T08:28:21.162Z,8
2022-11-18T08:33:37.318Z,7.8
2022-11-18T08:39:12.436Z,7.5
2022-11-18T08:44:45.107Z,7.4
2022-11-18T08:50:17.177Z,7.4
2022-11-18T08:56:01.622Z,7.7
2022-11-18T09:01:33.764Z,7.8
2022-11-18T09:06:54.358Z,8
2022-11-18T09:12:41.647Z,8.1
2022-11-18T09:18:17.928Z,8
2022-11-18T09:23:48.876Z,7.9
2022-11-18T09:29:32.267Z,7.9
2022-11-18T09:34:54.271Z,7.8
2022-11-18T09:40:26.569Z,7.9
2022-11-18T09:45:54.967Z,8
2022-11-18T09:51:37.648Z,8.1
2022-11-18T09:56:57.052Z,8.1
2022-11-18T10:02:25.705Z,8.3
2022-11-18T10:08:15.175Z,8.1
2022-11-18T10:13:33.452Z,8.1
2022-11-18T10:19:30.281Z,8
2022-11-18T10:24:52.658Z,7.9
2022-11-18T10:30:12.379Z,8
2022-11-18T10:36:05.001Z,8.1
2022-11-18T10:41:43.486Z,8.2
2022-11-18T10:47:07.639Z,8.3
2022-11-18T10:52:50.344Z,8.2
2022-11-18T10:58:02.249Z,8.2
2022-11-18T11:03:39.027Z,8.3
2022-11-18T11:09:14.819Z,8.5
2022-11-18T11:14:35.428Z,8.7
2022-11-18T11:20:32.627Z,9.1
2022-11-18T11:31:24.768Z,9.5
2022-11-18T11:36:53.561Z,9.2
2022-11-18T11:42:44.082Z,9
2022-11-18T11:48:04.105Z,8.9
2022-11-18T11:53:52.504Z,9
2022-11-18T11:59:10.534Z,8.8
2022-11-18T12:04:59.293Z,9
2022-11-18T12:10:32.282Z,9.2
2022-11-18T12:16:00.418Z,9.4
2022-11-18T12:21:35.006Z,9.4
2022-11-18T12:27:03.814Z,9.5
2022-11-18T12:32:30.491Z,10.3
2022-11-18T12:38:21.117Z,10.5
2022-11-18T12:43:50.511Z,10.3
2022-11-18T12:49:18.875Z,10.7
2022-11-18T12:55:01.112Z,10.1
2022-11-18T13:00:20.506Z,10
2022-11-18T13:05:55.562Z,10.7
2022-11-18T13:11:33.656Z,10.7
2022-11-18T13:17:18.204Z,10.9
2022-11-18T13:22:24.899Z,10.7
2022-11-18T13:28:21.216Z,10.5
2022-11-18T13:33:49.915Z,10.3
2022-11-18T13:39:29.436Z,10.9
2022-11-18T13:45:05.738Z,10.8
2022-11-18T13:50:31.510Z,10.8
2022-11-18T13:55:56.163Z,10.6
2022-11-18T14:01:43.067Z,10.6
2022-11-18T14:07:01.508Z,10.5
2022-11-18T14:12:50.893Z,10.9
2022-11-18T14:18:20.207Z,10.7
2022-11-18T14:23:43.052Z,10.3
2022-11-18T14:29:17.726Z,10.2
2022-11-18T14:34:42.189Z,9.5
2022-11-18T14:40:33.154Z,9.4
2022-11-18T14:46:03.127Z,9.4
2022-11-18T14:51:34.034Z,9.3
2022-11-18T14:57:03.329Z,9.4
2022-11-18T15:02:48.904Z,9.5
2022-11-18T15:08:24.267Z,9.4
2022-11-18T15:13:56.323Z,9.3
2022-11-18T15:19:08.088Z,9.2
2022-11-18T15:24:51.764Z,9
2022-11-18T15:30:16.286Z,8.9
2022-11-18T15:35:53.069Z,8.7
2022-11-18T15:41:19.459Z,8.5
2022-11-18T15:47:02.334Z,8.2
2022-11-18T15:52:26.616Z,8
2022-11-18T15:58:11.928Z,7.9
2022-11-18T16:03:39.088Z,7.9
2022-11-18T16:09:30.606Z,7.8
2022-11-18T16:14:55.167Z,7.8
2022-11-18T16:20:25.801Z,7.3
2022-11-18T16:26:09.511Z,7.2
2022-11-18T16:31:36.681Z,7.3
2022-11-18T16:36:47.466Z,7.4
2022-11-18T16:42:18.090Z,7.5
2022-11-18T16:48:12.287Z,7.3
2022-11-18T16:53:46.206Z,7.4
2022-11-18T16:59:08.428Z,7.6
2022-11-18T17:04:28.924Z,7.7
2022-11-18T17:10:23.168Z,7.7
2022-11-18T17:15:48.605Z,7.8
2022-11-18T17:21:30.682Z,7.5
2022-11-18T17:26:50.924Z,7.6
2022-11-18T17:32:34.308Z,7.6
2022-11-18T17:43:29.811Z,7.3
2022-11-18T17:48:52.266Z,7.4
2022-11-18T17:54:20.531Z,7.5
2022-11-18T18:00:18.726Z,7.8
2022-11-18T18:05:34.560Z,7.8
2022-11-18T18:11:01.836Z,7.9
2022-11-18T18:16:37.779Z,7.9
2022-11-18T18:22:09.909Z,7.8
2022-11-18T18:27:37.908Z,7.7
2022-11-18T18:33:23.144Z,7.4
2022-11-18T18:38:49.281Z,7.4
2022-11-18T18:44:18.485Z,7.4
2022-11-18T18:50:02.352Z,7.5
2022-11-18T18:55:20.843Z,7.4
2022-11-18T19:01:00.714Z,7.2
2022-11-18T19:06:50.430Z,7.3
2022-11-18T19:12:17.459Z,7.2
2022-11-18T19:17:38.333Z,7.1
2022-11-18T19:23:18.624Z,7.1
2022-11-18T19:28:52.186Z,7
2022-11-18T19:34:05.102Z,6.9
2022-11-18T19:39:43.008Z,6.6
2022-11-18T19:45:11.589Z,6.1
2022-11-18T19:50:55.858Z,6.2
2022-11-18T19:56:28.237Z,6.1
2022-11-18T20:01:50.931Z,6.4
2022-11-18T20:07:20.131Z,6.3
2022-11-18T20:12:47.352Z,5.5
2022-11-18T20:18:43.520Z,6
2022-11-18T20:24:06.761Z,6.4
2022-11-18T20:29:34.654Z,6.1
2022-11-18T20:35:13.497Z,6.4
2022-11-18T20:40:52.481Z,6.5
2022-11-18T20:46:20.567Z,6.4
2022-11-18T20:51:44.623Z,6.6
2022-11-18T20:57:17.572Z,6.6
2022-11-18T21:02:35.463Z,6.6
2022-11-18T21:08:19.465Z,6.2
2022-11-18T21:13:44.252Z,6.1
2022-11-18T21:19:23.310Z,6.1
2022-11-18T21:25:05.352Z,6.1
2022-11-18T21:30:30.670Z,6.2
2022-11-18T21:35:53.982Z,5.8
2022-11-18T21:41:43.418Z,5.9
2022-11-18T21:47:02.170Z,6
2022-11-18T21:52:33.311Z,6
2022-11-18T21:58:16.888Z,5.9
2022-11-18T22:03:42.648Z,5.9
2022-11-18T22:09:05.169Z,5.9
2022-11-18T22:14:46.122Z,6.1
2022-11-18T22:20:26.458Z,6.2
2022-11-18T22:25:41.032Z,6.3
2022-11-18T22:31:23.867Z,6.2
2022-11-18T22:36:45.951Z,6.1
2022-11-18T22:42:27.893Z,5.8
2022-11-18T22:48:14.447Z,5.6
2022-11-18T22:53:34.034Z,5.6
2022-11-18T22:59:13.001Z,5.6
2022-11-18T23:04:30.872Z,5.7
2022-11-18T23:10:10.230Z,5.7
2022-11-18T23:15:54.684Z,5.5
2022-11-18T23:21:21.497Z,5.4
2022-11-18T23:26:55.426Z,5.5
2022-11-18T23:32:11.041Z,5.2
2022-11-18T23:38:00.393Z,5.2
2022-11-18T23:43:29.087Z,5
2022-11-18T23:48:43.156Z,5.1
2022-11-18T23:54:31.949Z,4.8
2022-11-18T23:59:43.897Z,4.8
